createdAt,value
2022-08-08T00:01:12.422Z,101280.75
2022-08-08T00:03:50.930Z,101148.41
2022-08-08T00:06:34.981Z,101280.22
2022-08-08T00:09:07.805Z,101181.78
2022-08-08T00:11:47.184Z,101295.16
2022-08-08T00:14:56.995Z,101285.81
2022-08-08T00:17:58.417Z,101286.00
2022-08-08T00:20:37.331Z,101281.03
2022-08-08T00:23:11.143Z,101234.56
2022-08-08T00:25:50.798Z,101287.34
2022-08-08T00:28:34.062Z,101141.06
2022-08-08T00:32:16.140Z,101231.81
2022-08-08T00:34:45.178Z,101286.03
2022-08-08T00:37:47.167Z,101281.03
2022-08-08T00:41:11.327Z,101279.50
2022-08-08T00:44:15.393Z,101169.13
2022-08-08T00:48:05.000Z,101225.88
2022-08-08T00:51:10.295Z,101278.47
2022-08-08T00:54:15.692Z,101282.88
2022-08-08T00:57:19.680Z,101280.38
2022-08-08T01:00:16.254Z,101167.25
2022-08-08T01:04:01.601Z,101285.91
2022-08-08T01:07:23.715Z,101289.47
2022-08-08T01:10:30.888Z,101253.13
2022-08-08T01:13:38.090Z,101281.31
2022-08-08T01:16:46.222Z,101283.03
2022-08-08T01:20:02.689Z,101004.81
2022-08-08T01:23:03.400Z,101284.22
2022-08-08T01:26:21.123Z,101270.03
2022-08-08T01:29:35.172Z,101197.63
2022-08-08T01:32:44.843Z,101197.81
2022-08-08T01:36:10.692Z,101290.03
2022-08-08T01:39:24.131Z,101314.31
2022-08-08T01:42:08.077Z,101287.72
2022-08-08T01:44:54.963Z,101133.28
2022-08-08T01:48:23.691Z,101164.47
2022-08-08T01:52:41.203Z,101166.38
2022-08-08T01:55:46.328Z,101154.66
2022-08-08T01:58:11.079Z,101127.75
2022-08-08T02:00:41.475Z,101285.03
2022-08-08T02:03:57.375Z,101122.78
2022-08-08T02:07:05.947Z,101281.84
2022-08-08T02:10:11.529Z,101105.72
2022-08-08T02:12:51.351Z,100982.03
2022-08-08T02:15:34.595Z,101139.59
2022-08-08T02:18:12.604Z,101089.06
2022-08-08T02:21:23.005Z,101221.25
2022-08-08T02:24:08.041Z,101213.94
2022-08-08T02:26:47.771Z,101180.22
2022-08-08T02:29:52.576Z,100978.44
2022-08-08T02:33:10.575Z,101289.59
2022-08-08T02:36:05.860Z,101287.94
2022-08-08T02:39:40.718Z,101287.22
2022-08-08T02:44:38.506Z,101179.13
2022-08-08T02:46:34.925Z,101293.44
2022-08-08T02:50:17.582Z,101029.88
2022-08-08T02:53:11.936Z,101039.16
2022-08-08T02:56:25.869Z,101166.06
2022-08-08T02:59:56.983Z,100977.88
2022-08-08T03:03:00.557Z,101131.69
2022-08-08T03:06:11.877Z,101301.81
2022-08-08T03:16:00.664Z,101304.66
2022-08-08T03:17:08.875Z,101179.56
2022-08-08T03:20:17.749Z,101301.38
2022-08-08T03:22:56.996Z,101027.56
2022-08-08T03:25:36.010Z,101196.88
2022-08-08T03:28:45.897Z,101214.75
2022-08-08T03:32:06.009Z,101023.16
2022-08-08T03:38:55.718Z,101078.03
2022-08-08T03:42:27.229Z,101013.31
2022-08-08T03:49:09.120Z,101130.00
2022-08-08T03:54:41.329Z,101230.97
2022-08-08T03:58:33.245Z,101218.16
2022-08-08T04:00:34.176Z,100989.91
2022-08-08T04:03:59.210Z,101207.34
2022-08-08T04:06:29.905Z,101207.63
2022-08-08T04:09:27.072Z,100996.03
2022-08-08T04:11:59.190Z,101238.97
2022-08-08T04:14:55.090Z,101341.41
2022-08-08T04:17:58.253Z,101269.56
2022-08-08T04:21:12.513Z,101330.25
2022-08-08T04:30:17.746Z,101333.75
2022-08-08T04:32:56.814Z,101288.38
2022-08-08T04:35:52.472Z,101221.97
2022-08-08T04:38:24.877Z,101058.47
2022-08-08T04:40:58.712Z,101012.66
2022-08-08T04:43:45.285Z,101351.41
2022-08-08T04:47:06.997Z,101349.41
2022-08-08T04:50:01.029Z,101014.31
2022-08-08T04:52:42.931Z,101207.72
2022-08-08T04:55:19.794Z,101360.34
2022-08-08T04:57:59.137Z,101231.16
2022-08-08T05:00:29.321Z,101268.31
2022-08-08T05:02:57.501Z,101351.59
2022-08-08T05:05:44.642Z,101305.38
2022-08-08T05:08:16.012Z,101308.28
2022-08-08T05:10:48.235Z,101355.75
2022-08-08T05:13:17.740Z,101354.50
2022-08-08T05:16:51.673Z,101298.47
2022-08-08T05:18:36.666Z,101338.13
2022-08-08T05:21:43.705Z,101232.47
2022-08-08T05:24:55.872Z,101350.97
2022-08-08T05:27:26.613Z,101352.06
2022-08-08T05:30:47.463Z,101177.56
2022-08-08T05:33:17.900Z,101327.28
2022-08-08T05:35:58.885Z,101222.63
2022-08-08T05:38:47.898Z,101276.06
2022-08-08T05:41:24.476Z,101091.44
2022-08-08T05:44:18.368Z,101359.25
2022-08-08T05:47:21.142Z,101144.81
2022-08-08T05:50:05.244Z,101359.06
2022-08-08T05:52:48.803Z,101171.50
2022-08-08T05:59:58.681Z,101126.06
2022-08-08T06:11:52.888Z,101359.09
2022-08-08T06:14:27.080Z,101240.06
2022-08-08T06:17:00.925Z,101244.19
2022-08-08T06:19:49.303Z,101307.22
2022-08-08T06:22:37.522Z,101307.13
2022-08-08T06:31:22.729Z,101318.41
2022-08-08T06:34:25.938Z,101276.06
2022-08-08T06:37:00.778Z,101229.22
2022-08-08T06:39:56.214Z,101318.38
2022-08-08T06:42:29.487Z,101376.84
2022-08-08T06:45:01.127Z,101305.16
2022-08-08T06:47:36.627Z,101327.53
2022-08-08T06:50:31.401Z,101304.50
2022-08-08T06:53:13.907Z,101374.59
2022-08-08T06:56:00.483Z,101379.44
2022-08-08T06:58:33.618Z,101374.47
2022-08-08T07:01:52.298Z,101381.91
2022-08-08T07:04:36.881Z,101379.88
2022-08-08T07:06:55.716Z,101352.50
2022-08-08T07:09:45.508Z,101350.69
2022-08-08T07:12:32.032Z,101355.75
2022-08-08T07:15:11.491Z,101371.31
2022-08-08T07:18:01.620Z,101378.59
2022-08-08T07:20:45.935Z,101400.28
2022-08-08T07:23:25.228Z,101398.28
2022-08-08T07:26:00.344Z,101354.25
2022-08-08T07:28:31.703Z,101398.47
2022-08-08T07:31:06.383Z,101394.69
2022-08-08T07:33:53.306Z,101391.97
2022-08-08T07:36:30.398Z,101395.19
2022-08-08T07:39:01.563Z,101397.66
2022-08-08T07:41:58.531Z,101393.28
2022-08-08T07:44:40.677Z,101392.41
2022-08-08T07:47:12.505Z,101393.28
2022-08-08T07:49:46.159Z,101391.72
2022-08-08T07:52:26.802Z,101395.28
2022-08-08T07:55:03.809Z,101390.13
2022-08-08T07:57:48.162Z,101385.50
2022-08-08T08:00:18.944Z,101386.56
2022-08-08T08:03:05.280Z,101263.19
2022-08-08T08:05:39.939Z,101396.97
2022-08-08T08:08:18.914Z,101387.00
2022-08-08T08:10:52.363Z,101393.91
2022-08-08T08:13:42.992Z,101390.19
2022-08-08T08:16:20.242Z,101367.50
2022-08-08T08:18:57.301Z,101383.56
2022-08-08T08:21:44.059Z,101387.97
2022-08-08T08:24:32.161Z,101384.78
2022-08-08T08:27:03.970Z,101388.81
2022-08-08T08:29:35.573Z,101398.06
2022-08-08T08:32:05.596Z,101390.56
2022-08-08T08:34:36.958Z,101392.09
2022-08-08T08:37:11.956Z,101388.88
2022-08-08T08:40:00.315Z,101393.50
2022-08-08T08:42:36.265Z,101389.06
2022-08-08T08:45:21.348Z,101388.38
2022-08-08T08:47:54.493Z,101393.44
2022-08-08T08:50:32.515Z,101391.84
2022-08-08T08:53:27.153Z,101392.72
2022-08-08T08:56:03.216Z,101385.19
2022-08-08T08:58:39.731Z,101384.69
2022-08-08T09:01:13.466Z,101384.81
2022-08-08T09:03:50.401Z,101383.97
2022-08-08T09:06:33.985Z,101382.97
2022-08-08T09:09:07.116Z,101376.53
2022-08-08T09:11:47.587Z,101379.53
2022-08-08T09:14:24.019Z,101377.44
2022-08-08T09:16:57.063Z,101373.72
2022-08-08T09:21:58.977Z,101367.53
2022-08-08T09:22:26.016Z,101368.47
2022-08-08T09:24:58.476Z,101374.00
2022-08-08T09:27:42.065Z,101373.97
2022-08-08T09:30:22.062Z,101373.22
2022-08-08T09:33:12.247Z,101371.25
2022-08-08T09:35:49.920Z,101370.00
2022-08-08T09:38:53.355Z,101364.75
2022-08-08T09:42:14.305Z,101361.94
2022-08-08T09:44:34.300Z,101359.41
2022-08-08T09:47:25.923Z,101361.38
2022-08-08T09:50:03.419Z,101358.97
2022-08-08T09:52:54.065Z,101367.41
2022-08-08T09:56:02.787Z,101352.13
2022-08-08T09:58:26.304Z,101351.84
2022-08-08T10:01:14.257Z,101342.25
2022-08-08T10:03:43.546Z,101316.72
2022-08-08T10:06:16.252Z,101348.41
2022-08-08T10:08:46.668Z,101346.09
2022-08-08T10:12:27.445Z,101313.22
2022-08-08T10:14:07.314Z,101344.56
2022-08-08T10:16:56.815Z,101337.50
2022-08-08T10:19:45.778Z,101336.47
2022-08-08T10:22:19.572Z,101328.81
2022-08-08T10:24:49.730Z,101326.03
2022-08-08T10:27:24.986Z,101315.06
2022-08-08T10:30:00.013Z,101328.81
2022-08-08T10:32:35.816Z,101331.78
2022-08-08T10:35:11.582Z,101323.91
2022-08-08T10:37:53.712Z,101318.69
2022-08-08T10:40:23.074Z,101309.47
2022-08-08T10:43:00.507Z,101326.44
2022-08-08T10:45:29.649Z,101324.53
2022-08-08T10:48:12.801Z,101296.34
2022-08-08T10:50:42.541Z,101317.09
2022-08-08T10:53:13.111Z,101308.28
2022-08-08T10:55:46.785Z,101312.06
2022-08-08T10:58:15.611Z,101288.97
2022-08-08T11:00:53.052Z,101300.13
2022-08-08T11:04:01.525Z,101294.78
2022-08-08T11:06:34.500Z,101304.34
2022-08-08T11:09:14.946Z,101295.06
2022-08-08T11:12:05.023Z,101299.00
2022-08-08T11:14:33.541Z,101236.66
2022-08-08T11:17:04.987Z,101292.84
2022-08-08T11:19:36.551Z,101286.09
2022-08-08T11:22:05.682Z,101286.00
2022-08-08T11:24:36.854Z,101288.00
2022-08-08T11:27:10.751Z,101282.47
2022-08-08T11:29:58.179Z,101256.88
2022-08-08T11:32:40.184Z,101277.81
2022-08-08T11:35:24.921Z,101279.56
2022-08-08T11:38:39.211Z,101281.88
2022-08-08T11:40:52.459Z,101280.75
2022-08-08T11:43:24.577Z,101285.06
2022-08-08T11:46:09.949Z,101248.84
2022-08-08T11:48:44.888Z,101286.22
2022-08-08T11:51:30.327Z,101285.06
2022-08-08T11:54:27.212Z,101276.28
2022-08-08T11:56:56.051Z,101285.69
2022-08-08T11:59:58.525Z,101280.16
2022-08-08T12:02:32.395Z,101225.47
2022-08-08T12:05:06.762Z,101257.44
2022-08-08T12:08:12.610Z,101268.50
2022-08-08T12:22:20.605Z,101029.63
2022-08-08T12:28:57.773Z,101269.09
2022-08-08T12:31:53.909Z,101052.34
2022-08-08T12:34:48.747Z,101041.91
2022-08-08T12:37:22.819Z,101224.38
2022-08-08T12:40:13.322Z,101254.41
2022-08-08T12:42:58.081Z,101120.03
2022-08-08T12:45:58.017Z,101118.38
2022-08-08T12:48:38.790Z,101260.13
2022-08-08T12:51:39.807Z,101233.81
2022-08-08T12:54:29.437Z,101115.47
2022-08-08T12:57:49.671Z,101007.81
2022-08-08T13:00:56.735Z,101164.56
2022-08-08T13:03:53.217Z,101151.13
2022-08-08T13:07:01.069Z,101080.34
2022-08-08T13:10:05.014Z,101159.84
2022-08-08T13:19:01.688Z,101218.91
2022-08-08T13:22:24.428Z,101064.34
2022-08-08T13:28:42.452Z,101221.44
2022-08-08T13:31:46.678Z,101214.66
2022-08-08T13:38:05.626Z,101148.13
2022-08-08T13:40:33.921Z,100963.53
2022-08-08T13:46:27.443Z,101011.63
2022-08-08T13:49:11.981Z,101205.44
2022-08-08T13:52:07.750Z,101137.50
2022-08-08T13:58:07.138Z,100998.88
2022-08-08T14:00:33.315Z,101204.78
2022-08-08T14:03:52.650Z,100997.53
2022-08-08T14:06:37.759Z,101031.56
2022-08-08T14:10:02.243Z,101156.25
2022-08-08T14:12:58.187Z,101102.59
2022-08-08T14:15:46.507Z,101118.06
2022-08-08T14:18:51.968Z,101092.03
2022-08-08T14:21:52.035Z,101159.44
2022-08-08T14:24:31.607Z,101035.19
2022-08-08T14:27:01.599Z,101210.63
2022-08-08T14:29:48.225Z,100954.50
2022-08-08T14:32:32.194Z,100946.84
2022-08-08T14:35:24.373Z,101203.81
2022-08-08T14:38:34.533Z,101097.16
2022-08-08T14:41:53.246Z,101062.44
2022-08-08T14:44:22.102Z,100980.72
2022-08-08T14:47:21.191Z,101020.44
2022-08-08T14:50:39.396Z,100998.38
2022-08-08T14:53:27.337Z,101030.56
2022-08-08T14:56:38.277Z,101190.69
2022-08-08T14:59:31.419Z,101108.63
2022-08-08T15:02:20.035Z,101047.34
2022-08-08T15:05:15.830Z,100959.81
2022-08-08T15:07:53.676Z,101069.56
2022-08-08T15:10:35.992Z,101195.88
2022-08-08T15:13:08.415Z,100997.69
2022-08-08T15:16:02.489Z,101193.19
2022-08-08T15:18:34.696Z,101189.84
2022-08-08T15:21:07.822Z,101202.63
2022-08-08T15:23:40.317Z,101191.16
2022-08-08T15:26:14.007Z,101139.13
2022-08-08T15:28:56.131Z,100958.47
2022-08-08T15:32:19.012Z,101214.94
2022-08-08T15:34:56.350Z,100996.91
2022-08-08T15:37:38.092Z,100951.00
2022-08-08T15:40:15.516Z,100992.41
2022-08-08T15:42:51.354Z,101101.75
2022-08-08T15:45:29.902Z,101067.81
2022-08-08T15:48:15.445Z,101158.75
2022-08-08T15:51:03.182Z,101194.63
2022-08-08T15:53:50.004Z,100932.47
2022-08-08T15:56:23.484Z,101003.44
2022-08-08T15:58:56.786Z,101127.00
2022-08-08T16:01:40.835Z,101173.53
2022-08-08T16:04:21.434Z,101202.25
2022-08-08T16:07:04.523Z,101188.34
2022-08-08T16:13:03.451Z,101143.91
2022-08-08T16:13:14.269Z,101133.94
2022-08-08T16:15:21.964Z,101200.06
2022-08-08T16:18:05.941Z,100939.88
2022-08-08T16:20:42.242Z,101147.47
2022-08-08T16:23:16.087Z,101041.16
2022-08-08T16:25:54.550Z,101191.41
2022-08-08T16:28:36.313Z,100857.72
2022-08-08T16:31:07.643Z,101056.31
2022-08-08T16:33:38.710Z,101047.97
2022-08-08T16:36:09.863Z,101101.88
2022-08-08T16:38:47.553Z,101096.06
2022-08-08T16:41:22.864Z,101184.53
2022-08-08T16:43:52.356Z,101192.81
2022-08-08T16:46:39.081Z,101154.34
2022-08-08T16:49:09.688Z,101191.41
2022-08-08T16:55:14.001Z,101200.84
2022-08-08T16:55:22.688Z,101187.03
2022-08-08T16:57:43.586Z,101086.00
2022-08-08T17:00:08.874Z,101195.13
2022-08-08T17:02:39.547Z,101186.63
2022-08-08T17:05:10.065Z,101181.63
2022-08-08T17:07:40.255Z,101192.09
2022-08-08T17:10:11.593Z,101134.72
2022-08-08T17:12:47.038Z,101202.66
2022-08-08T17:15:23.171Z,101099.06
2022-08-08T17:18:03.032Z,101201.09
2022-08-08T17:20:33.000Z,101200.81
2022-08-08T17:23:18.262Z,101184.44
2022-08-08T17:25:58.104Z,101210.16
2022-08-08T17:28:35.224Z,101203.06
2022-08-08T17:31:15.110Z,101212.72
2022-08-08T17:34:53.385Z,101180.88
2022-08-08T17:36:44.185Z,101186.63
2022-08-08T17:40:05.136Z,101202.81
2022-08-08T17:42:18.490Z,101226.44
2022-08-08T17:44:49.051Z,101234.19
2022-08-08T17:47:37.750Z,101235.75
2022-08-08T17:50:10.641Z,101226.09
2022-08-08T17:52:43.162Z,101227.50
2022-08-08T17:56:05.224Z,101250.22
2022-08-08T17:58:02.516Z,101189.25
2022-08-08T18:00:31.777Z,101236.00
2022-08-08T18:03:09.079Z,101253.53
2022-08-08T18:05:44.298Z,101213.53
2022-08-08T18:08:24.888Z,101226.88
2022-08-08T18:11:15.093Z,101255.56
2022-08-08T18:13:46.940Z,101253.34
2022-08-08T18:16:20.568Z,101239.03
2022-08-08T18:18:53.634Z,101255.34
2022-08-08T18:21:25.032Z,101266.75
2022-08-08T18:24:18.969Z,101282.91
2022-08-08T18:26:53.745Z,101271.50
2022-08-08T18:29:33.354Z,101275.81
2022-08-08T18:32:04.225Z,101271.22
2022-08-08T18:34:33.918Z,101274.69
2022-08-08T18:37:08.182Z,101268.00
2022-08-08T18:39:42.590Z,101281.59
2022-08-08T18:42:15.779Z,101283.25
2022-08-08T18:44:55.178Z,101290.44
2022-08-08T18:47:24.894Z,101289.84
2022-08-08T18:50:00.474Z,101157.72
2022-08-08T18:52:33.805Z,101256.94
2022-08-08T18:55:10.236Z,101305.31
2022-08-08T18:57:45.157Z,101303.63
2022-08-08T19:00:20.203Z,101312.91
2022-08-08T19:02:56.593Z,101320.19
2022-08-08T19:05:31.819Z,101319.78
2022-08-08T19:08:24.803Z,101321.00
2022-08-08T19:10:58.900Z,101321.88
2022-08-08T19:13:53.251Z,101339.16
2022-08-08T19:16:19.258Z,101336.06
2022-08-08T19:18:54.525Z,101343.16
2022-08-08T19:21:30.747Z,101143.16
2022-08-08T19:24:05.482Z,101354.78
2022-08-08T19:26:35.369Z,101266.88
2022-08-08T19:29:04.539Z,101274.75
2022-08-08T19:31:36.872Z,101057.50
2022-08-08T19:34:29.934Z,101128.38
2022-08-08T19:36:58.650Z,101104.34
2022-08-08T19:39:35.760Z,101054.34
2022-08-08T19:42:06.851Z,101366.31
2022-08-08T19:44:45.719Z,101242.00
2022-08-08T19:47:26.929Z,101160.97
2022-08-08T19:50:02.581Z,101093.47
2022-08-08T19:52:39.399Z,101085.63
2022-08-08T19:55:34.087Z,101364.66
2022-08-08T19:58:02.324Z,101244.44
2022-08-08T20:00:34.388Z,101390.25
2022-08-08T20:03:14.879Z,101399.75
2022-08-08T20:06:14.475Z,101351.88
2022-08-08T20:08:47.635Z,101232.53
2022-08-08T20:11:18.562Z,101364.56
2022-08-08T20:14:32.961Z,101286.94
2022-08-08T20:16:40.824Z,101399.28
2022-08-08T20:19:10.603Z,101405.97
2022-08-08T20:21:40.060Z,101385.00
2022-08-08T20:24:08.783Z,101305.41
2022-08-08T20:26:41.802Z,101412.78
2022-08-08T20:29:18.081Z,101411.63
2022-08-08T20:32:06.913Z,101402.31
2022-08-08T20:34:36.082Z,101314.50
2022-08-08T20:37:07.215Z,101420.22
2022-08-08T20:39:41.438Z,101405.66
2022-08-08T20:42:28.620Z,101329.19
2022-08-08T20:44:58.719Z,101247.47
2022-08-08T20:47:36.059Z,101347.88
2022-08-08T20:50:09.932Z,101427.97
2022-08-08T20:52:40.126Z,101376.47
2022-08-08T20:55:26.305Z,101382.72
2022-08-08T20:57:57.829Z,101284.03
2022-08-08T21:00:41.250Z,101424.03
2022-08-08T21:03:24.670Z,101304.91
2022-08-08T21:10:12.697Z,101413.81
2022-08-08T21:16:04.645Z,101285.28
2022-08-08T21:18:29.521Z,101426.03
2022-08-08T21:24:01.999Z,101401.22
2022-08-08T21:43:48.476Z,101341.56
2022-08-08T21:54:31.737Z,101404.22
2022-08-08T21:55:01.847Z,101466.91
2022-08-08T21:58:04.081Z,101342.88
2022-08-08T22:00:46.829Z,101314.06
2022-08-08T22:03:20.450Z,101358.78
2022-08-08T22:08:41.925Z,101443.94
2022-08-08T22:11:51.134Z,101446.06
2022-08-08T22:13:58.825Z,101284.78
2022-08-08T22:16:28.768Z,101466.69
2022-08-08T22:18:58.667Z,101334.66
2022-08-08T22:21:34.660Z,101276.59
2022-08-08T22:24:02.833Z,101296.03
2022-08-08T22:26:32.765Z,101448.56
2022-08-08T22:29:13.254Z,101455.50
2022-08-08T22:32:01.707Z,101467.41
2022-08-08T22:34:33.261Z,101481.53
2022-08-08T22:37:14.734Z,101316.41
2022-08-08T22:39:51.334Z,101292.19
2022-08-08T22:42:31.990Z,101291.72
2022-08-08T22:45:02.597Z,101332.53
2022-08-08T22:47:38.369Z,101298.06
2022-08-08T22:50:26.556Z,101390.78
2022-08-08T22:54:27.390Z,101167.22
2022-08-08T22:55:58.292Z,101385.09
2022-08-08T22:58:31.829Z,101297.50
2022-08-08T23:01:01.596Z,101354.34
2022-08-08T23:03:54.272Z,101348.88
2022-08-08T23:06:24.643Z,101367.53
2022-08-08T23:08:58.272Z,101434.38
2022-08-08T23:11:30.809Z,101318.09
2022-08-08T23:14:21.865Z,101483.88
2022-08-08T23:16:59.092Z,101467.88
2022-08-08T23:19:30.713Z,101196.41
2022-08-08T23:22:08.254Z,101479.97
2022-08-08T23:24:41.156Z,101197.31
2022-08-08T23:27:37.506Z,101450.00
2022-08-08T23:30:00.752Z,101421.00
2022-08-08T23:32:30.039Z,101196.91
2022-08-08T23:34:59.274Z,101315.50
2022-08-08T23:38:00.879Z,101174.22
2022-08-08T23:40:36.165Z,101476.38
2022-08-08T23:43:04.427Z,101481.22
2022-08-08T23:49:02.533Z,101504.41
2022-08-08T23:49:04.614Z,101490.59
2022-08-08T23:54:42.970Z,101293.44
2022-08-08T23:57:04.732Z,101226.13
